createdAt,value
2019-02-19T00:02:39.263Z,30.37
2019-02-19T00:07:43.953Z,28.37
2019-02-19T00:12:48.649Z,28.93
2019-02-19T00:17:53.457Z,27.27
2019-02-19T00:22:58.161Z,30.00
2019-02-19T00:28:02.877Z,27.23
2019-02-19T00:33:07.639Z,30.40
2019-02-19T00:38:12.317Z,27.77
2019-02-19T00:43:17.032Z,32.23
2019-02-19T00:48:21.730Z,28.17
2019-02-19T00:53:26.403Z,29.00
2019-02-19T00:58:31.200Z,29.20
2019-02-19T01:03:36.152Z,30.93
2019-02-19T01:08:40.938Z,30.80
2019-02-19T01:13:45.663Z,28.83
2019-02-19T01:18:50.366Z,28.57
2019-02-19T01:23:55.054Z,28.17
2019-02-19T01:28:59.894Z,30.23
2019-02-19T01:34:04.634Z,31.97
2019-02-19T01:39:09.678Z,32.20
2019-02-19T01:44:14.350Z,28.95
2019-02-19T01:49:19.028Z,31.97
2019-02-19T01:54:23.716Z,25.03
2019-02-19T01:59:28.414Z,33.43
2019-02-19T02:04:33.133Z,26.40
2019-02-19T02:09:38.064Z,29.40
2019-02-19T02:14:42.847Z,25.87
2019-02-19T02:19:47.552Z,27.70
2019-02-19T02:24:52.247Z,26.93
2019-02-19T02:29:57.911Z,32.43
2019-02-19T02:35:02.712Z,28.77
2019-02-19T02:40:07.723Z,31.20
2019-02-19T02:45:12.730Z,27.67
2019-02-19T02:50:17.467Z,25.97
2019-02-19T02:55:22.149Z,26.47
2019-02-19T03:00:26.991Z,29.60
2019-02-19T03:05:31.772Z,25.37
2019-02-19T03:10:36.483Z,28.00
2019-02-19T03:15:41.244Z,29.57
2019-02-19T03:20:46.235Z,28.07
2019-02-19T03:25:50.915Z,34.43
2019-02-19T03:30:55.603Z,28.40
2019-02-19T03:36:00.272Z,24.87
2019-02-19T03:41:04.966Z,30.90
2019-02-19T03:46:12.405Z,27.07
2019-02-19T03:51:16.020Z,28.47
2019-02-19T03:56:20.950Z,29.43
2019-02-19T04:01:25.805Z,28.40
2019-02-19T04:06:32.371Z,29.73
2019-02-19T04:11:36.929Z,30.97
2019-02-19T04:16:41.605Z,29.17
2019-02-19T04:21:46.295Z,27.87
2019-02-19T04:26:50.972Z,24.87
2019-02-19T04:31:55.768Z,27.37
2019-02-19T04:37:00.505Z,28.03
2019-02-19T04:42:05.198Z,28.30
2019-02-19T04:47:09.905Z,28.17
2019-02-19T04:52:14.600Z,28.00
2019-02-19T04:57:19.376Z,28.17
2019-02-19T05:02:24.067Z,25.83
2019-02-19T05:07:28.750Z,27.70
2019-02-19T05:12:33.478Z,27.13
2019-02-19T05:17:38.192Z,22.30
2019-02-19T05:22:42.918Z,26.73
2019-02-19T05:27:47.647Z,21.87
2019-02-19T05:32:52.342Z,28.97
2019-02-19T05:37:57.059Z,24.23
2019-02-19T05:43:01.746Z,26.30
2019-02-19T05:48:06.393Z,24.97
2019-02-19T05:53:11.128Z,22.13
2019-02-19T05:58:15.816Z,24.13
2019-02-19T06:03:20.566Z,25.20
2019-02-19T06:08:25.245Z,24.03
2019-02-19T06:13:30.019Z,25.10
2019-02-19T06:18:34.728Z,24.80
2019-02-19T06:23:39.407Z,25.93
2019-02-19T06:28:44.135Z,28.70
2019-02-19T06:33:48.831Z,21.97
2019-02-19T06:38:53.510Z,28.53
2019-02-19T06:43:58.633Z,21.03
2019-02-19T06:49:04.349Z,25.67
2019-02-19T06:54:09.041Z,23.57
2019-02-19T06:59:13.739Z,22.53
2019-02-19T07:04:25.661Z,24.10
2019-02-19T07:09:30.372Z,22.40
2019-02-19T07:14:35.074Z,23.77
2019-02-19T07:19:39.832Z,18.87
2019-02-19T07:24:44.546Z,25.63
2019-02-19T07:29:49.248Z,23.53
2019-02-19T07:34:53.966Z,22.50
2019-02-19T07:39:58.764Z,24.77
2019-02-19T07:45:03.791Z,23.80
2019-02-19T07:50:09.136Z,22.30
2019-02-19T07:55:13.910Z,23.57
2019-02-19T08:00:18.596Z,27.87
2019-02-19T08:05:23.263Z,27.30
2019-02-19T08:10:27.987Z,20.23
2019-02-19T08:15:32.659Z,23.00
2019-02-19T08:20:37.387Z,22.57
2019-02-19T08:25:42.063Z,26.20
2019-02-19T08:30:46.754Z,20.20
2019-02-19T08:35:51.748Z,20.50
2019-02-19T08:40:56.425Z,20.47
2019-02-19T08:46:01.107Z,21.33
2019-02-19T08:51:05.804Z,23.77
2019-02-19T08:56:10.467Z,20.97
2019-02-19T09:01:15.184Z,22.70
2019-02-19T09:06:19.930Z,21.15
2019-02-19T09:11:24.757Z,24.47
2019-02-19T09:16:29.433Z,26.70
2019-02-19T09:21:34.138Z,28.90
2019-02-19T09:26:38.818Z,29.13
2019-02-19T09:31:43.501Z,27.17
2019-02-19T09:36:48.199Z,34.23
2019-02-19T09:41:52.909Z,30.53
2019-02-19T09:46:57.672Z,30.43
2019-02-19T09:52:02.332Z,31.23
2019-02-19T09:57:07.090Z,32.60
2019-02-19T10:02:11.761Z,32.27
2019-02-19T10:07:16.482Z,31.57
2019-02-19T10:12:21.164Z,35.83
2019-02-19T10:17:25.886Z,36.83
2019-02-19T10:22:30.598Z,33.37
2019-02-19T10:27:35.282Z,33.67
2019-02-19T10:32:39.968Z,32.97
2019-02-19T10:37:44.660Z,34.07
2019-02-19T10:42:49.358Z,35.13
2019-02-19T10:47:54.983Z,37.13
2019-02-19T10:52:59.684Z,41.23
2019-02-19T10:58:04.941Z,35.07
2019-02-19T11:03:09.684Z,37.87
2019-02-19T11:08:14.384Z,37.43
2019-02-19T11:13:19.079Z,34.13
2019-02-19T11:18:28.333Z,32.27
2019-02-19T11:23:30.173Z,34.97
2019-02-19T11:28:34.938Z,36.30
2019-02-19T11:33:39.687Z,29.70
2019-02-19T11:38:44.344Z,31.17
2019-02-19T11:43:49.065Z,26.93
2019-02-19T11:48:53.733Z,30.83
2019-02-19T11:53:58.421Z,32.50
2019-02-19T11:59:03.119Z,27.17
2019-02-19T12:04:07.895Z,26.57
2019-02-19T12:09:12.601Z,28.40
2019-02-19T12:14:17.323Z,25.97
2019-02-19T12:19:22.009Z,30.17
2019-02-19T12:24:26.695Z,28.47
2019-02-19T12:29:31.417Z,28.97
2019-02-19T12:34:36.174Z,27.47
2019-02-19T12:39:40.947Z,28.50
2019-02-19T12:44:45.727Z,29.70
2019-02-19T12:49:50.451Z,32.93
2019-02-19T12:54:55.230Z,27.60
2019-02-19T13:00:00.013Z,30.13
2019-02-19T13:05:05.635Z,39.00
2019-02-19T13:10:10.497Z,28.60
2019-02-19T13:15:15.447Z,31.93
2019-02-19T13:20:20.333Z,29.23
2019-02-19T13:25:25.045Z,25.80
2019-02-19T13:30:29.748Z,25.97
2019-02-19T13:35:34.490Z,27.17
2019-02-19T13:40:39.308Z,28.73
2019-02-19T13:45:44.023Z,25.33
2019-02-19T13:50:48.778Z,26.03
2019-02-19T13:55:55.858Z,26.23
2019-02-19T14:01:00.508Z,26.30
2019-02-19T14:06:05.304Z,21.60
2019-02-19T14:11:10.013Z,19.60
2019-02-19T14:16:28.372Z,21.77
2019-02-19T14:21:50.776Z,18.60
2019-02-19T14:27:14.568Z,20.43
2019-02-19T14:32:37.491Z,16.23
2019-02-19T14:38:14.053Z,20.70
2019-02-19T14:43:32.586Z,20.50
2019-02-19T14:48:50.751Z,21.00
2019-02-19T14:54:14.534Z,19.70
2019-02-19T14:59:37.017Z,17.90
2019-02-19T15:04:52.333Z,19.33
2019-02-19T15:10:19.800Z,19.90
2019-02-19T15:15:42.265Z,18.10
2019-02-19T15:21:07.289Z,17.50
2019-02-19T15:26:47.283Z,19.93
2019-02-19T15:32:09.714Z,18.90
2019-02-19T15:37:32.254Z,21.00
2019-02-19T15:42:58.957Z,18.17
2019-02-19T15:48:26.616Z,17.47
2019-02-19T15:53:41.827Z,12.37
2019-02-19T15:59:10.804Z,18.10
2019-02-19T16:04:21.610Z,16.53
2019-02-19T16:09:54.880Z,20.70
2019-02-19T16:15:18.716Z,11.73
2019-02-19T16:20:51.932Z,13.20
2019-02-19T16:26:27.474Z,15.67
2019-02-19T16:32:06.653Z,16.43
2019-02-19T16:37:16.383Z,13.67
2019-02-19T16:42:40.453Z,16.33
2019-02-19T16:47:53.557Z,10.77
2019-02-19T16:53:07.296Z,11.63
2019-02-19T16:58:23.809Z,9.40
2019-02-19T17:03:40.415Z,13.07
2019-02-19T17:08:54.473Z,12.27
2019-02-19T17:14:33.010Z,13.73
2019-02-19T17:19:49.195Z,12.03
2019-02-19T17:25:15.759Z,9.43
2019-02-19T17:30:42.791Z,11.67
2019-02-19T17:35:59.804Z,15.13
2019-02-19T17:41:19.790Z,11.13
2019-02-19T17:46:43.779Z,10.20
2019-02-19T17:52:04.491Z,9.43
2019-02-19T17:57:28.316Z,13.13
2019-02-19T18:02:52.315Z,10.60
2019-02-19T18:08:28.467Z,10.63
2019-02-19T18:13:50.657Z,7.23
2019-02-19T18:18:55.679Z,8.23
2019-02-19T18:24:00.403Z,8.67
2019-02-19T18:29:05.172Z,7.47
2019-02-19T18:34:09.849Z,6.57
2019-02-19T18:39:15.073Z,6.83
2019-02-19T18:44:19.809Z,6.57
2019-02-19T18:49:24.511Z,5.57
2019-02-19T18:54:29.279Z,5.70
2019-02-19T18:59:34.047Z,11.77
2019-02-19T19:04:38.740Z,7.63
2019-02-19T19:09:43.919Z,7.47
2019-02-19T19:14:48.659Z,6.83
2019-02-19T19:19:53.430Z,9.33
2019-02-19T19:24:58.212Z,7.67
2019-02-19T19:30:03.271Z,9.27
2019-02-19T19:35:09.210Z,6.73
2019-02-19T19:40:13.929Z,5.93
2019-02-19T19:45:18.672Z,9.90
2019-02-19T19:50:23.434Z,7.70
2019-02-19T19:55:28.191Z,6.57
2019-02-19T20:00:32.962Z,7.43
2019-02-19T20:05:37.790Z,10.60
2019-02-19T20:10:42.492Z,9.90
2019-02-19T20:15:47.223Z,9.73
2019-02-19T20:20:51.884Z,8.50
2019-02-19T20:25:56.589Z,7.67
2019-02-19T20:31:01.376Z,9.40
2019-02-19T20:36:07.536Z,6.07
2019-02-19T20:41:12.243Z,7.92
2019-02-19T20:46:16.951Z,8.60
2019-02-19T20:51:21.634Z,6.10
2019-02-19T20:56:26.337Z,7.43
2019-02-19T21:01:31.031Z,10.33
2019-02-19T21:06:35.724Z,7.47
2019-02-19T21:11:40.445Z,8.47
2019-02-19T21:16:45.148Z,7.17
2019-02-19T21:21:49.845Z,8.20
2019-02-19T21:26:54.589Z,9.07
2019-02-19T21:31:59.305Z,8.23
2019-02-19T21:37:04.753Z,8.87
2019-02-19T21:42:09.525Z,10.13
2019-02-19T21:47:14.320Z,7.77
2019-02-19T21:52:19.095Z,6.03
2019-02-19T21:57:23.903Z,5.90
2019-02-19T22:02:28.599Z,7.23
2019-02-19T22:07:33.303Z,7.60
2019-02-19T22:12:38.002Z,6.30
2019-02-19T22:17:43.341Z,5.20
2019-02-19T22:22:48.072Z,5.73
2019-02-19T22:27:52.784Z,4.13
2019-02-19T22:32:57.554Z,6.77
2019-02-19T22:38:02.247Z,4.33
2019-02-19T22:43:07.345Z,5.57
2019-02-19T22:48:12.108Z,6.20
2019-02-19T22:53:34.783Z,6.77
2019-02-19T22:58:39.461Z,4.90
2019-02-19T23:03:44.221Z,7.63
2019-02-19T23:08:48.903Z,9.77
2019-02-19T23:13:53.581Z,7.97
2019-02-19T23:18:58.266Z,9.33
2019-02-19T23:24:02.936Z,8.43
2019-02-19T23:29:07.946Z,9.03
2019-02-19T23:34:12.601Z,12.80
2019-02-19T23:39:17.642Z,12.40
2019-02-19T23:44:22.304Z,12.00
2019-02-19T23:49:27.018Z,14.07
2019-02-19T23:54:31.732Z,12.43
2019-02-19T23:59:36.428Z,12.67
